Time;durP1;ratioP1;P1;durP2;ratioP2;P2;SDS_P1;SDS_P2;PMS_P1;PMS_P2;Temp;Humidity;BMP_temperature;BMP_pressure;BME280_temperature;BME280_humidity;BME280_pressure;Samples;Min_cycle;Max_cycle;Signal;HPM_P1;HPM_P2
2024/01/18 00:00:28;;;;;;;23.48;15.00;;;;;;;1.56;75.18;97437.50;4973589;28;20134;-75
2024/01/18 00:02:55;;;;;;;23.23;15.25;;;;;;;1.55;75.12;97440.16;4956307;28;20094;-75
2024/01/18 00:05:21;;;;;;;25.77;16.20;;;;;;;1.52;74.56;97446.38;4973865;28;20059;-75
2024/01/18 00:07:48;;;;;;;27.45;16.08;;;;;;;1.52;74.49;97458.50;4973635;28;20059;-75
2024/01/18 00:10:15;;;;;;;23.27;14.85;;;;;;;1.49;74.67;97458.69;4973669;28;20172;-75
2024/01/18 00:12:42;;;;;;;24.23;15.63;;;;;;;1.48;74.51;97464.78;4973714;28;20090;-76
2024/01/18 00:15:09;;;;;;;21.30;15.48;;;;;;;1.46;74.66;97469.22;4973555;28;20077;-75
2024/01/18 00:17:37;;;;;;;23.55;14.90;;;;;;;1.43;74.59;97473.63;4973766;28;20043;-76
2024/01/18 00:20:04;;;;;;;25.48;15.45;;;;;;;1.41;75.17;97483.28;4973093;28;20559;-75
2024/01/18 00:22:31;;;;;;;24.17;14.65;;;;;;;1.39;74.73;97472.16;4972332;28;20069;-76
2024/01/18 00:24:58;;;;;;;22.60;14.25;;;;;;;1.38;74.79;97486.03;4973395;28;20046;-75
2024/01/18 00:27:25;;;;;;;24.27;15.13;;;;;;;1.37;75.18;97489.56;4973414;28;20126;-76
2024/01/18 00:29:51;;;;;;;25.83;15.93;;;;;;;1.37;75.26;97486.13;4955791;28;20062;-76
2024/01/18 00:32:18;;;;;;;29.67;17.02;;;;;;;1.36;75.06;97484.44;4973306;28;20062;-76
2024/01/18 00:34:44;;;;;;;23.77;15.02;;;;;;;1.36;75.04;97494.81;4973309;28;20463;-76
2024/01/18 00:37:11;;;;;;;26.38;16.23;;;;;;;1.36;75.70;97493.06;4956111;28;20638;-76
2024/01/18 00:39:41;;;;;;;25.15;16.42;;;;;;;1.35;74.86;97490.56;4972896;28;20042;-76
2024/01/18 00:42:08;;;;;;;26.25;16.50;;;;;;;1.35;75.18;97478.41;4956101;28;20091;-76
2024/01/18 00:44:35;;;;;;;29.80;17.98;;;;;;;1.37;75.57;97478.34;4973247;28;20142;-76
2024/01/18 00:47:02;;;;;;;26.42;17.13;;;;;;;1.38;75.42;97482.63;4973138;28;20145;-76
2024/01/18 00:49:29;;;;;;;26.23;17.45;;;;;;;1.38;75.37;97491.22;4972939;28;20568;-75
2024/01/18 00:51:56;;;;;;;34.08;19.10;;;;;;;1.38;75.72;97483.44;4972817;28;20078;-75
2024/01/18 00:54:22;;;;;;;29.02;18.63;;;;;;;1.38;75.23;97483.44;4973028;28;20091;-76
2024/01/18 00:56:49;;;;;;;24.58;17.30;;;;;;;1.38;75.30;97488.63;4973052;28;20082;-76
2024/01/18 00:59:15;;;;;;;37.58;19.20;;;;;;;1.38;75.28;97493.00;4972807;28;20403;-76
2024/01/18 01:01:42;;;;;;;29.13;17.42;;;;;;;1.36;75.35;97480.13;4964741;28;20558;-76
2024/01/18 01:04:08;;;;;;;26.85;17.90;;;;;;;1.36;75.66;97487.03;4972887;28;20043;-76
2024/01/18 01:06:35;;;;;;;25.60;17.42;;;;;;;1.37;75.10;97493.91;4955872;28;20143;-76
2024/01/18 01:09:01;;;;;;;26.35;16.08;;;;;;;1.36;75.67;97497.41;4972842;28;20055;-76
2024/01/18 01:11:28;;;;;;;34.95;17.65;;;;;;;1.37;75.38;97494.75;4955197;28;20076;-75
2024/01/18 01:13:55;;;;;;;28.52;17.48;;;;;;;1.37;76.01;97506.84;4955461;28;20062;-75
2024/01/18 01:16:21;;;;;;;24.17;16.40;;;;;;;1.38;75.55;97511.13;4972769;28;20047;-76
2024/01/18 01:18:48;;;;;;;28.33;18.30;;;;;;;1.39;75.90;97518.00;4972747;28;20086;-76
2024/01/18 01:21:14;;;;;;;31.45;17.17;;;;;;;1.40;75.55;97530.88;4972354;28;20747;-75
2024/01/18 01:23:48;;;;;;;29.80;16.60;;;;;;;1.40;75.92;97525.69;4972570;28;20055;-76
2024/01/18 01:26:15;;;;;;;32.13;17.90;;;;;;;1.42;75.91;97529.00;4972034;28;20054;-75
2024/01/18 01:28:42;;;;;;;31.52;17.75;;;;;;;1.43;75.68;97530.69;4955282;28;20047;-76
2024/01/18 01:31:09;;;;;;;28.80;18.00;;;;;;;1.45;76.00;97534.97;4972457;28;20125;-76
2024/01/18 01:33:36;;;;;;;25.65;16.92;;;;;;;1.45;75.85;97534.97;4972022;28;20050;-75
2024/01/18 01:36:04;;;;;;;27.25;16.73;;;;;;;1.45;75.50;97538.38;4972370;28;20061;-75
2024/01/18 01:38:31;;;;;;;25.48;16.98;;;;;;;1.46;75.93;97539.22;4972192;28;20062;-76
2024/01/18 01:40:59;;;;;;;26.52;17.10;;;;;;;1.46;75.53;97540.03;4972208;28;20480;-75
2024/01/18 01:43:27;;;;;;;29.27;17.52;;;;;;;1.46;75.97;97534.03;4971963;28;20050;-76
2024/01/18 01:45:54;;;;;;;32.55;17.48;;;;;;;1.47;75.72;97535.69;4971885;28;20213;-75
2024/01/18 01:48:20;;;;;;;28.23;18.20;;;;;;;1.47;75.85;97539.13;4972143;28;20142;-75
2024/01/18 01:50:47;;;;;;;29.80;17.23;;;;;;;1.47;76.04;97544.31;4972285;28;20492;-76
2024/01/18 01:53:16;;;;;;;35.22;18.58;;;;;;;1.49;75.73;97549.44;4971829;28;20129;-74
2024/01/18 01:55:44;;;;;;;30.27;18.52;;;;;;;1.49;75.51;97546.84;4972096;28;20055;-76
2024/01/18 01:58:15;;;;;;;30.08;18.67;;;;;;;1.47;75.50;97552.09;4971543;28;20416;-76
2024/01/18 02:00:42;;;;;;;27.52;17.67;;;;;;;1.49;75.65;97557.22;4972221;28;20133;-76
2024/01/18 02:03:09;;;;;;;31.58;18.30;;;;;;;1.48;76.23;97558.94;4971857;28;20145;-75
2024/01/18 02:05:36;;;;;;;28.20;17.35;;;;;;;1.48;76.27;97561.53;4972010;28;20062;-75
2024/01/18 02:08:04;;;;;;;26.70;16.40;;;;;;;1.49;76.28;97576.19;4971678;28;20078;-77
2024/01/18 02:10:30;;;;;;;29.88;18.50;;;;;;;1.50;75.83;97566.66;4954831;28;20130;-75
2024/01/18 02:12:58;;;;;;;32.00;17.35;;;;;;;1.50;75.50;97569.25;4954682;28;20062;-75
2024/01/18 02:15:25;;;;;;;27.63;16.90;;;;;;;1.50;75.26;97569.25;4972186;28;20047;-75
2024/01/18 02:17:53;;;;;;;29.17;16.75;;;;;;;1.50;75.38;97577.84;4971717;28;20512;-76
2024/01/18 02:20:19;;;;;;;25.45;16.38;;;;;;;1.48;75.49;97568.47;4972118;28;20059;-76
2024/01/18 02:22:47;;;;;;;26.05;16.17;;;;;;;1.48;75.68;97574.50;4971836;28;20133;-76
2024/01/18 02:25:24;;;;;;;31.00;16.98;;;;;;;1.45;74.38;97572.06;4971741;28;20137;-75
2024/01/18 02:27:58;;;;;;;28.65;15.65;;;;;;;1.45;75.39;97579.84;4971651;28;20057;-76
2024/01/18 02:30:24;;;;;;;;;;;;;;;1.47;74.36;97579.78;4972073;28;20137;-76
2024/01/18 02:32:51;;;;;;;23.27;14.60;;;;;;;1.48;75.30;97579.69;4971703;28;19933;-76
2024/01/18 02:35:18;;;;;;;20.08;13.93;;;;;;;1.46;75.08;97586.69;4971703;28;20138;-75
2024/01/18 02:37:45;;;;;;;22.48;14.57;;;;;;;1.43;75.73;97585.13;4971811;28;20476;-76
2024/01/18 02:40:11;;;;;;;23.13;14.45;;;;;;;1.42;75.96;97586.03;4971853;28;20093;-75
2024/01/18 02:42:38;;;;;;;23.38;15.23;;;;;;;1.41;76.10;97584.38;4971388;28;20086;-76
2024/01/18 02:45:06;;;;;;;23.15;15.75;;;;;;;1.40;76.28;97584.47;4972872;28;20504;-75
2024/01/18 02:47:35;;;;;;;25.52;15.15;;;;;;;1.41;75.92;97586.13;4975411;28;20138;-75
2024/01/18 02:50:02;;;;;;;24.00;16.30;;;;;;;1.41;76.15;97579.19;4958478;28;20137;-75
2024/01/18 02:52:29;;;;;;;27.75;16.25;;;;;;;1.42;75.79;97578.28;4957475;28;20113;-76
2024/01/18 02:54:55;;;;;;;24.17;15.27;;;;;;;1.43;76.18;97577.34;4975200;28;20093;-76
2024/01/18 02:57:22;;;;;;;23.15;14.60;;;;;;;1.43;76.11;97584.31;4975128;28;20496;-75
2024/01/18 02:59:48;;;;;;;25.98;16.02;;;;;;;1.45;75.38;97584.22;4958141;28;20488;-76
2024/01/18 03:02:15;;;;;;;28.05;16.50;;;;;;;1.45;76.42;97592.00;4957786;28;20051;-76
2024/01/18 03:04:42;;;;;;;24.63;15.60;;;;;;;1.45;75.62;97599.78;4975162;28;20059;-75
2024/01/18 03:07:09;;;;;;;27.45;16.38;;;;;;;1.46;75.65;97596.25;4975205;28;20492;-76
2024/01/18 03:09:35;;;;;;;20.98;14.02;;;;;;;1.45;76.16;97590.22;4975159;28;20086;-76
2024/01/18 03:12:02;;;;;;;24.35;14.45;;;;;;;1.46;76.55;97591.06;4974595;28;20050;-74
2024/01/18 03:14:29;;;;;;;21.58;15.02;;;;;;;1.46;75.63;97596.25;4957651;28;20508;-76
2024/01/18 03:16:55;;;;;;;25.38;13.93;;;;;;;1.47;76.18;97603.09;4975517;28;20058;-76
2024/01/18 03:19:22;;;;;;;25.90;14.80;;;;;;;1.47;75.80;97603.09;4974838;28;20050;-75
2024/01/18 03:21:49;;;;;;;21.70;14.23;;;;;;;1.48;76.01;97610.81;4974636;28;20047;-75
2024/01/18 03:24:15;;;;;;;23.20;14.48;;;;;;;1.49;75.43;97614.25;4974624;28;20510;-77
2024/01/18 03:26:42;;;;;;;23.48;13.63;;;;;;;1.49;75.61;97614.25;4974628;28;20055;-76
2024/01/18 03:29:09;;;;;;;19.05;13.43;;;;;;;1.49;75.28;97609.06;4974740;28;20059;-75
2024/01/18 03:31:35;;;;;;;25.75;13.68;;;;;;;1.48;75.33;97605.63;4974270;28;20555;-77
2024/01/18 03:34:02;;;;;;;19.08;12.93;;;;;;;1.47;75.33;97605.69;4966717;28;20538;-76
2024/01/18 03:36:29;;;;;;;21.15;11.98;;;;;;;1.45;75.54;97603.19;4974905;28;20050;-76
2024/01/18 03:38:55;;;;;;;23.95;12.88;;;;;;;1.43;75.09;97605.84;4974586;28;20055;-76
2024/01/18 03:41:22;;;;;;;22.70;13.25;;;;;;;1.42;74.76;97611.97;4974483;28;20058;-76
2024/01/18 03:43:49;;;;;;;19.98;12.05;;;;;;;1.40;74.98;97610.38;4974127;28;20078;-75
2024/01/18 03:46:16;;;;;;;22.55;13.18;;;;;;;1.38;74.93;97607.88;4974740;28;20134;-75
2024/01/18 03:48:42;;;;;;;21.23;11.52;;;;;;;1.37;75.19;97608.78;4974477;28;20134;-75
2024/01/18 03:51:09;;;;;;;20.40;12.32;;;;;;;1.35;75.46;97621.00;4974553;28;20054;-75
2024/01/18 03:53:41;;;;;;;20.38;12.55;;;;;;;1.34;75.00;97618.50;4974101;28;20046;-76
2024/01/18 03:56:08;;;;;;;22.58;12.55;;;;;;;1.33;74.89;97616.81;4974280;28;20065;-76
2024/01/18 03:58:36;;;;;;;25.10;12.18;;;;;;;1.32;74.89;97620.31;4974244;28;20046;-76
2024/01/18 04:01:03;;;;;;;17.75;11.40;;;;;;;1.30;75.09;97618.66;4974471;28;20047;-76
2024/01/18 04:03:30;;;;;;;19.25;11.75;;;;;;;1.30;74.59;97610.03;4973696;28;20416;-75
2024/01/18 04:05:57;;;;;;;22.17;11.52;;;;;;;1.27;74.76;97612.81;4973987;28;20105;-76
2024/01/18 04:08:24;;;;;;;25.02;12.15;;;;;;;1.26;75.36;97600.75;4973874;28;20452;-76
2024/01/18 04:10:51;;;;;;;21.42;11.38;;;;;;;1.25;74.91;97609.47;4956923;28;20112;-75
2024/01/18 04:13:18;;;;;;;19.27;10.45;;;;;;;1.23;74.91;97609.53;4956340;28;20114;-76
2024/01/18 04:15:45;;;;;;;18.98;10.48;;;;;;;1.21;74.76;97603.59;4973650;28;20046;-76
2024/01/18 04:18:12;;;;;;;19.60;10.60;;;;;;;1.22;74.50;97619.97;4956905;28;20090;-75
2024/01/18 04:20:39;;;;;;;17.15;10.10;;;;;;;1.17;74.96;97615.88;4974043;28;20062;-75
2024/01/18 04:23:05;;;;;;;18.65;10.80;;;;;;;1.15;73.93;97625.50;4973591;28;20050;-76
2024/01/18 04:25:32;;;;;;;20.05;10.02;;;;;;;1.12;74.50;97620.47;4973177;28;20050;-75
2024/01/18 04:27:58;;;;;;;19.33;10.23;;;;;;;1.09;74.20;97625.00;4973511;28;20149;-76
2024/01/18 04:30:25;;;;;;;15.57;9.45;;;;;;;1.06;74.01;97625.13;4974246;28;20057;-75
2024/01/18 04:32:52;;;;;;;14.55;9.77;;;;;;;1.01;74.21;97626.22;4973704;28;20054;-75
2024/01/18 04:35:19;;;;;;;20.20;9.93;;;;;;;0.99;74.23;97635.00;4973729;28;20085;-76
2024/01/18 04:37:45;;;;;;;15.75;9.13;;;;;;;0.95;74.37;97633.47;4972992;28;20061;-76
2024/01/18 04:40:12;;;;;;;18.83;9.77;;;;;;;0.92;74.14;97639.66;4973546;28;20093;-75
2024/01/18 04:42:39;;;;;;;17.50;9.70;;;;;;;0.89;74.53;97640.66;4973204;28;20047;-76
2024/01/18 04:45:07;;;;;;;17.02;9.48;;;;;;;0.87;73.87;97639.91;4973541;28;20051;-76
2024/01/18 04:47:33;;;;;;;18.98;9.80;;;;;;;0.84;74.15;97634.88;4956291;28;20043;-75
2024/01/18 04:50:00;;;;;;;14.77;8.60;;;;;;;0.81;74.02;97637.63;4973376;28;20058;-76
2024/01/18 04:52:27;;;;;;;18.95;9.48;;;;;;;0.79;74.51;97642.06;4973385;28;20088;-75
2024/01/18 04:54:56;;;;;;;17.02;9.45;;;;;;;0.76;73.97;97645.66;4973178;28;20078;-76
2024/01/18 04:57:22;;;;;;;16.02;8.48;;;;;;;0.74;73.97;97651.78;4972640;28;20089;-75
2024/01/18 04:59:49;;;;;;;14.52;8.30;;;;;;;0.71;74.22;97657.16;4973272;28;20137;-76
2024/01/18 05:02:16;;;;;;;15.07;8.38;;;;;;;0.69;73.79;97651.19;4972900;28;20066;-76
2024/01/18 05:04:43;;;;;;;15.43;8.57;;;;;;;0.66;74.29;97654.78;4955822;28;20093;-75
2024/01/18 05:07:10;;;;;;;18.77;8.95;;;;;;;0.62;74.41;97658.44;4972585;28;20050;-75
2024/01/18 05:09:37;;;;;;;14.15;8.02;;;;;;;0.60;74.12;97661.09;4972483;28;20503;-76
2024/01/18 05:12:04;;;;;;;13.23;7.63;;;;;;;0.58;74.24;97664.69;4955394;28;20129;-76
2024/01/18 05:14:31;;;;;;;14.52;7.93;;;;;;;0.55;73.85;97670.84;4972896;28;20047;-75
2024/01/18 05:17:03;;;;;;;12.90;7.93;;;;;;;0.54;74.09;97678.69;4972665;28;20141;-75
2024/01/18 05:19:30;;;;;;;15.20;8.32;;;;;;;0.52;74.41;97684.78;4972702;28;20051;-77
2024/01/18 05:21:57;;;;;;;13.15;8.02;;;;;;;0.49;74.06;97684.94;4972603;28;20054;-76
2024/01/18 05:24:24;;;;;;;12.52;8.27;;;;;;;0.49;74.58;97686.69;4972417;28;20059;-75
2024/01/18 05:26:50;;;;;;;14.70;8.20;;;;;;;0.47;74.84;97685.91;4972504;28;20440;-75
2024/01/18 05:29:17;;;;;;;14.13;8.52;;;;;;;0.45;74.63;97682.59;4972642;28;20468;-75
2024/01/18 05:31:43;;;;;;;15.55;8.55;;;;;;;0.43;74.01;97680.06;4972485;28;20054;-75
2024/01/18 05:34:10;;;;;;;13.07;8.15;;;;;;;0.41;74.55;97681.06;4972461;28;20407;-75
2024/01/18 05:36:36;;;;;;;15.63;7.95;;;;;;;0.38;74.34;97682.06;4972526;28;20051;-75
2024/01/18 05:39:04;;;;;;;16.75;8.13;;;;;;;0.37;74.42;97693.28;4954956;28;20043;-75
2024/01/18 05:41:31;;;;;;;13.82;8.15;;;;;;;0.34;74.37;97699.44;4972351;28;20051;-75
2024/01/18 05:43:58;;;;;;;13.27;7.78;;;;;;;0.33;74.40;97705.56;4972520;28;20484;-75
2024/01/18 05:46:26;;;;;;;16.45;8.45;;;;;;;0.32;74.04;97713.38;4972262;28;20129;-72
2024/01/18 05:48:52;;;;;;;11.63;7.63;;;;;;;0.31;74.70;97712.56;4972021;28;20141;-72
2024/01/18 05:53:55;;;;;;;10.95;7.57;;;;;;;0.28;74.55;97714.44;5011143;23;20054;-73
2024/01/18 05:56:21;;;;;;;11.45;7.75;;;;;;;0.25;74.22;97716.28;4972272;28;20093;-73
2024/01/18 05:58:49;;;;;;;13.48;7.43;;;;;;;0.24;74.35;97717.19;4971940;28;20105;-72
2024/01/18 06:01:16;;;;;;;10.88;6.82;;;;;;;0.25;74.50;97712.84;4954463;28;20046;-73
2024/01/18 06:03:42;;;;;;;10.50;6.93;;;;;;;0.25;74.80;97720.59;4971831;28;20062;-73
2024/01/18 06:06:11;;;;;;;12.75;6.80;;;;;;;0.26;74.70;97724.84;4971879;28;20086;-73
2024/01/18 06:08:38;;;;;;;11.52;6.68;;;;;;;0.25;74.38;97718.03;4954588;28;20081;-73
2024/01/18 06:11:04;;;;;;;9.45;5.65;;;;;;;0.23;74.17;97733.63;4971632;28;20138;-73
2024/01/18 06:13:31;;;;;;;10.98;6.68;;;;;;;0.23;74.07;97730.22;4971997;28;20319;-73
2024/01/18 06:15:57;;;;;;;9.02;6.18;;;;;;;0.20;74.54;97736.38;4972196;28;20050;-73
2024/01/18 06:18:24;;;;;;;9.50;6.28;;;;;;;0.20;74.63;97740.69;4972206;28;20050;-73
2024/01/18 06:20:50;;;;;;;14.68;7.05;;;;;;;0.20;74.44;97753.63;4975975;28;20534;-73
2024/01/18 06:23:17;;;;;;;10.63;6.45;;;;;;;0.18;74.43;97758.06;4975886;28;20459;-73
2024/01/18 06:25:44;;;;;;;10.98;6.45;;;;;;;0.18;74.47;97755.47;4976042;28;20110;-73
2024/01/18 06:28:10;;;;;;;10.15;5.82;;;;;;;0.17;74.65;97752.03;4975812;28;20369;-73
2024/01/18 06:30:43;;;;;;;14.27;6.35;;;;;;;0.16;74.60;97758.13;4975401;28;20066;-73
2024/01/18 06:33:11;;;;;;;10.00;5.85;;;;;;;0.16;74.50;97770.22;4975400;28;20485;-73
2024/01/18 06:35:37;;;;;;;10.05;6.10;;;;;;;0.15;74.19;97771.13;4975841;28;20141;-74
2024/01/18 06:38:04;;;;;;;10.55;6.45;;;;;;;0.14;74.96;97788.38;4975635;28;20053;-72
2024/01/18 06:40:31;;;;;;;13.70;6.53;;;;;;;0.14;74.92;97782.38;4975108;28;20551;-73
2024/01/18 06:42:57;;;;;;;11.85;6.25;;;;;;;0.14;75.18;97798.72;4974857;28;20065;-73
2024/01/18 06:45:24;;;;;;;13.82;6.95;;;;;;;0.15;75.30;97795.22;4974602;28;20051;-73
2024/01/18 06:47:50;;;;;;;10.75;6.07;;;;;;;0.16;75.60;97802.09;4974634;28;20070;-73
2024/01/18 06:50:17;;;;;;;12.73;6.25;;;;;;;0.18;75.21;97802.03;4974584;28;20460;-73
2024/01/18 06:52:44;;;;;;;10.40;6.30;;;;;;;0.19;75.81;97804.53;4974514;28;20389;-73
2024/01/18 06:55:10;;;;;;;10.88;6.03;;;;;;;0.21;75.26;97801.88;4975122;28;20046;-72
2024/01/18 06:57:37;;;;;;;13.20;7.45;;;;;;;0.22;75.30;97798.41;4957620;28;20090;-73
2024/01/18 07:00:04;;;;;;;12.70;7.00;;;;;;;0.24;75.73;97804.31;4975238;28;20055;-70
2024/01/18 07:02:33;;;;;;;16.00;7.20;;;;;;;0.26;76.25;97812.84;4974877;28;20050;-72
2024/01/18 07:05:00;;;;;;;12.25;6.70;;;;;;;0.27;75.64;97817.13;4975357;28;20324;-73
2024/01/18 07:07:27;;;;;;;11.60;6.80;;;;;;;0.29;75.82;97822.25;4975172;28;20137;-72
2024/01/18 07:09:53;;;;;;;12.27;6.65;;;;;;;0.30;75.54;97822.16;4973754;23;20064;-72
2024/01/18 07:12:20;;;;;;;13.35;6.68;;;;;;;0.32;75.30;97822.06;4974713;28;20038;-73
2024/01/18 07:14:46;;;;;;;11.90;7.28;;;;;;;0.33;75.38;97822.00;4974899;28;20062;-72
2024/01/18 07:17:13;;;;;;;13.68;7.22;;;;;;;0.33;75.13;97827.19;4957799;28;20082;-73
2024/01/18 07:19:40;;;;;;;11.13;6.70;;;;;;;0.32;74.98;97827.25;4957764;28;20059;-72
2024/01/18 07:22:07;;;;;;;12.27;6.72;;;;;;;0.31;75.20;97826.44;4974523;28;20046;-73
2024/01/18 07:24:34;;;;;;;16.00;6.50;;;;;;;0.31;74.82;97828.16;4974841;28;20050;-72
2024/01/18 07:27:09;;;;;;;11.88;6.30;;;;;;;0.28;74.30;97830.88;4974158;28;20078;-73
2024/01/18 07:29:36;;;;;;;12.40;5.97;;;;;;;0.28;74.42;97836.06;4974857;28;20535;-75
2024/01/18 07:32:03;;;;;;;14.23;6.82;;;;;;;0.25;74.61;97831.88;4973834;28;20117;-75
2024/01/18 07:34:33;;;;;;;10.60;6.15;;;;;;;0.22;74.62;97832.84;4974498;28;20499;-76
2024/01/18 07:37:00;;;;;;;10.55;6.03;;;;;;;0.21;74.52;97836.38;4974154;28;20055;-75
2024/01/18 07:39:27;;;;;;;11.57;6.47;;;;;;;0.21;74.69;97832.94;4974618;28;20138;-75
2024/01/18 07:41:54;;;;;;;11.80;7.20;;;;;;;0.19;75.03;97837.34;4973980;28;20452;-75
2024/01/18 07:44:21;;;;;;;10.48;6.32;;;;;;;0.19;75.00;97834.75;4974421;28;20065;-76
2024/01/18 07:46:47;;;;;;;10.02;6.18;;;;;;;0.19;75.33;97837.34;4974006;28;20138;-75
2024/01/18 07:49:13;;;;;;;11.80;6.63;;;;;;;0.18;75.45;97840.84;4973725;28;20051;-75
2024/01/18 07:51:41;;;;;;;12.25;6.22;;;;;;;0.18;75.13;97843.44;4974171;28;20055;-75
2024/01/18 07:54:07;;;;;;;14.98;6.55;;;;;;;0.17;75.06;97844.31;4974373;28;20055;-75
2024/01/18 07:56:35;;;;;;;13.57;7.07;;;;;;;0.17;74.92;97852.94;4974004;28;20043;-75
2024/01/18 07:59:01;;;;;;;11.00;6.35;;;;;;;0.17;75.00;97854.66;4974464;28;20066;-75
2024/01/18 08:01:28;;;;;;;10.88;5.82;;;;;;;0.17;75.23;97859.84;4973973;28;20090;-76
2024/01/18 08:03:59;;;;;;;13.55;5.90;;;;;;;0.15;75.24;97865.09;4974145;28;20126;-76
2024/01/18 08:06:26;;;;;;;8.13;5.40;;;;;;;0.15;75.75;97866.84;4973853;28;20055;-76
2024/01/18 08:08:54;;;;;;;8.40;5.25;;;;;;;0.15;76.21;97870.25;4973592;28;20043;-75
2024/01/18 08:11:20;;;;;;;9.20;4.68;;;;;;;0.20;76.50;97870.06;4974164;28;20141;-77
2024/01/18 08:13:47;;;;;;;8.88;4.78;;;;;;;0.22;76.39;97869.09;4973769;28;20499;-75
2024/01/18 08:16:13;;;;;;;6.20;4.13;;;;;;;0.27;76.53;97874.06;4974128;28;20408;-75
2024/01/18 08:18:40;;;;;;;9.07;3.80;;;;;;;0.30;76.51;97873.09;4956061;28;20058;-75
2024/01/18 08:21:07;;;;;;;8.30;4.38;;;;;;;0.35;76.39;97873.72;4973513;28;20145;-76
2024/01/18 08:23:37;;;;;;;7.40;4.20;;;;;;;0.37;76.54;97872.72;4973521;28;20097;-76
2024/01/18 08:26:04;;;;;;;8.90;3.30;;;;;;;0.42;76.49;97889.78;4973922;28;20048;-76
2024/01/18 08:28:32;;;;;;;8.23;4.07;;;;;;;0.44;75.93;97900.94;4973534;28;20122;-75
2024/01/18 08:30:58;;;;;;;6.82;3.50;;;;;;;0.48;76.43;97905.03;4973809;28;20129;-76
2024/01/18 08:33:24;;;;;;;5.80;3.65;;;;;;;0.48;76.09;97903.28;4973509;28;20531;-75
2024/01/18 08:35:51;;;;;;;7.72;4.57;;;;;;;0.51;76.74;97910.09;4973288;28;20054;-76
2024/01/18 08:38:20;;;;;;;12.10;5.30;;;;;;;0.54;76.08;97924.63;4973047;28;20086;-75
2024/01/18 08:40:47;;;;;;;9.82;5.60;;;;;;;0.55;76.75;97924.56;4955706;28;20507;-75
2024/01/18 08:43:14;;;;;;;13.00;6.40;;;;;;;0.58;76.54;97932.19;4972167;28;20145;-75
2024/01/18 08:45:41;;;;;;;14.35;7.43;;;;;;;0.61;76.16;97934.66;4972985;28;20583;-76
2024/01/18 08:48:08;;;;;;;15.40;8.20;;;;;;;0.63;76.84;97944.91;4973176;28;20043;-75
2024/01/18 08:50:35;;;;;;;12.00;7.38;;;;;;;0.66;76.35;97943.97;4973105;28;20047;-75
2024/01/18 08:53:02;;;;;;;13.77;8.07;;;;;;;0.67;76.16;97945.63;4973226;28;20065;-76
2024/01/18 08:55:28;;;;;;;13.73;8.05;;;;;;;0.68;75.87;97948.16;4973239;28;20057;-75
2024/01/18 08:57:55;;;;;;;16.45;7.57;;;;;;;0.69;75.84;97960.19;4955764;28;20065;-75
2024/01/18 09:00:21;;;;;;;11.38;6.70;;;;;;;0.70;76.47;97961.00;4972596;28;20053;-75
2024/01/18 09:02:48;;;;;;;14.98;6.80;;;;;;;0.72;76.77;97962.66;4955715;28;20049;-76
2024/01/18 09:05:15;;;;;;;20.38;7.80;;;;;;;0.72;76.39;97970.41;4972638;28;20538;-75
2024/01/18 09:07:42;;;;;;;12.48;7.80;;;;;;;0.75;76.35;97972.03;4955203;28;20555;-75
2024/01/18 09:10:09;;;;;;;11.82;7.55;;;;;;;0.77;76.39;97972.78;4972831;28;20393;-74
2024/01/18 09:12:36;;;;;;;12.63;6.82;;;;;;;0.78;76.79;97969.28;4972690;28;20097;-76
2024/01/18 09:15:03;;;;;;;10.90;6.18;;;;;;;0.81;76.19;97976.91;4955669;28;20050;-75
2024/01/18 09:17:30;;;;;;;12.25;6.85;;;;;;;0.84;76.78;97979.38;4972499;28;20107;-75
2024/01/18 09:19:56;;;;;;;10.82;6.43;;;;;;;0.86;76.75;97980.13;4972569;28;20090;-76
2024/01/18 09:22:23;;;;;;;14.25;6.40;;;;;;;0.89;76.67;97982.59;4972548;28;20055;-75
2024/01/18 09:24:49;;;;;;;10.57;6.43;;;;;;;0.91;76.75;97985.13;4972572;28;20142;-75
2024/01/18 09:27:19;;;;;;;9.43;5.88;;;;;;;0.94;76.79;97994.50;4955699;28;20066;-77
2024/01/18 09:29:47;;;;;;;10.55;5.78;;;;;;;0.97;76.32;97989.19;4972362;28;20411;-75
2024/01/18 09:32:13;;;;;;;9.68;5.20;;;;;;;0.99;76.68;97992.53;4972152;28;20051;-75
2024/01/18 09:34:40;;;;;;;8.68;4.18;;;;;;;1.02;76.86;98000.16;4972524;28;20086;-75
2024/01/18 09:37:07;;;;;;;8.63;4.10;;;;;;;1.04;76.47;98009.53;4972321;28;20054;-75
2024/01/18 09:39:34;;;;;;;7.70;4.07;;;;;;;1.07;76.46;98010.28;4972171;28;20496;-75
2024/01/18 09:42:03;;;;;;;10.27;4.32;;;;;;;1.10;76.64;98020.53;4972268;28;20057;-75
2024/01/18 09:44:32;;;;;;;5.03;3.55;;;;;;;1.14;77.20;98022.06;4972340;28;20098;-75
2024/01/18 09:47:01;;;;;;;6.95;3.97;;;;;;;1.17;77.11;98027.94;4972171;28;20074;-76
2024/01/18 09:49:32;;;;;;;7.75;3.72;;;;;;;1.20;76.99;98028.72;4972077;28;20134;-76
2024/01/18 09:52:00;;;;;;;5.20;3.05;;;;;;;1.25;76.90;98031.94;4971938;28;20054;-75
2024/01/18 09:54:27;;;;;;;5.63;3.08;;;;;;;1.29;77.14;98025.69;4972097;28;20087;-76
2024/01/18 09:56:53;;;;;;;5.18;2.50;;;;;;;1.33;77.21;98027.22;4972350;28;20078;-75
2024/01/18 09:59:22;;;;;;;6.80;3.30;;;;;;;1.36;77.34;98036.63;4971736;28;20055;-75
2024/01/18 10:01:49;;;;;;;6.70;3.10;;;;;;;1.41;77.23;98040.69;4972216;28;20047;-75
2024/01/18 10:04:19;;;;;;;5.10;3.00;;;;;;;1.46;77.25;98037.03;4972188;28;20059;-75
2024/01/18 10:06:46;;;;;;;7.53;3.00;;;;;;;1.51;77.88;98043.69;4972392;28;20057;-75
2024/01/18 10:09:14;;;;;;;4.05;2.65;;;;;;;1.56;77.85;98057.25;4954883;28;20050;-76
2024/01/18 10:11:45;;;;;;;4.00;2.60;;;;;;;1.61;77.43;98062.22;4971745;28;20122;-76
2024/01/18 10:14:13;;;;;;;6.80;2.90;;;;;;;1.68;77.73;98067.94;4972491;28;20054;-75
2024/01/18 10:16:41;;;;;;;9.63;2.85;;;;;;;1.72;77.62;98066.88;4972410;28;20142;-75
2024/01/18 10:19:19;;;;;;;4.93;2.78;;;;;;;1.78;77.82;98079.56;4972086;28;20047;-76
2024/01/18 10:21:47;;;;;;;5.55;2.65;;;;;;;1.85;77.83;98085.31;4972236;28;20090;-76
2024/01/18 10:24:14;;;;;;;7.70;2.60;;;;;;;1.91;77.94;98079.00;4971820;28;20062;-76
2024/01/18 10:26:41;;;;;;;5.07;2.63;;;;;;;1.95;77.87;98085.72;4971882;28;20050;-75
2024/01/18 10:29:11;;;;;;;4.78;2.95;;;;;;;2.00;77.95;98085.47;4971854;28;20419;-75
2024/01/18 10:31:43;;;;;;;5.03;2.83;;;;;;;2.03;77.42;98093.13;4971610;28;20051;-75
2024/01/18 10:34:10;;;;;;;4.55;2.42;;;;;;;2.08;77.97;98088.53;4971913;28;20602;-75
2024/01/18 10:36:37;;;;;;;7.43;2.35;;;;;;;2.12;77.46;98090.06;4972107;28;20050;-76
2024/01/18 10:39:18;;;;;;;5.80;2.58;;;;;;;2.14;76.69;98105.56;4971514;28;20145;-75
2024/01/18 10:41:45;;;;;;;4.75;2.45;;;;;;;2.21;77.43;98106.94;4965810;28;20065;-76
2024/01/18 10:44:16;;;;;;;7.05;2.88;;;;;;;2.24;77.39;98116.34;4971703;28;20097;-76
2024/01/18 10:46:43;;;;;;;8.60;2.38;;;;;;;2.28;77.92;98110.91;4971660;28;20105;-75
2024/01/18 10:49:10;;;;;;;4.20;2.25;;;;;;;2.33;78.12;98115.88;4971606;28;20051;-76
2024/01/18 10:51:39;;;;;;;5.93;2.80;;;;;;;2.37;77.60;98107.03;4971070;28;20085;-75
2024/01/18 10:54:08;;;;;;;7.20;2.45;;;;;;;2.40;77.36;98112.06;4971740;28;20054;-75
2024/01/18 10:56:51;;;;;;;3.63;2.50;;;;;;;2.48;77.97;98115.09;4971894;28;20070;-75
2024/01/18 10:59:17;;;;;;;5.30;2.50;;;;;;;2.53;77.80;98114.88;4971529;28;20058;-75
2024/01/18 11:01:45;;;;;;;7.85;3.13;;;;;;;2.58;77.56;98114.66;4970852;28;20086;-76
2024/01/18 11:04:11;;;;;;;6.50;2.60;;;;;;;2.62;77.85;98115.34;4971504;28;20054;-75
2024/01/18 11:06:40;;;;;;;7.13;2.30;;;;;;;2.67;78.30;98115.94;4973401;28;20061;-75
2024/01/18 11:09:07;;;;;;;6.97;2.35;;;;;;;2.73;78.21;98119.06;4975127;28;20137;-76
2024/01/18 11:11:35;;;;;;;4.53;2.42;;;;;;;2.81;77.65;98120.44;4974796;28;20050;-75
2024/01/18 11:14:02;;;;;;;3.63;2.72;;;;;;;2.89;78.35;98128.66;4975142;28;20047;-76
2024/01/18 11:16:30;;;;;;;5.10;2.30;;;;;;;2.98;78.15;98130.78;4975016;28;20057;-75
2024/01/18 11:18:58;;;;;;;6.13;2.58;;;;;;;3.13;78.98;98131.75;4975356;28;20097;-75
2024/01/18 11:21:40;;;;;;;3.33;2.38;;;;;;;3.28;78.11;98136.22;4974512;28;20128;-75
2024/01/18 11:24:08;;;;;;;4.22;2.50;;;;;;;3.54;81.40;98140.00;4974941;28;20138;-75
2024/01/18 11:26:34;;;;;;;6.55;2.65;;;;;;;3.82;83.47;98133.31;4974883;28;20042;-75
2024/01/18 11:29:22;;;;;;;4.68;2.97;;;;;;;4.21;81.46;98140.69;4974678;28;20242;-75
2024/01/18 11:31:50;;;;;;;6.53;2.95;;;;;;;4.72;88.93;98145.59;4974826;28;20571;-75
2024/01/18 11:34:36;;;;;;;5.10;2.90;;;;;;;5.39;85.70;98146.84;4974584;28;20062;-75